Time;durP1;ratioP1;P1;durP2;ratioP2;P2;SDS_P1;SDS_P2;PMS_P1;PMS_P2;Temp;Humidity;BMP_temperature;BMP_pressure;BME280_temperature;BME280_humidity;BME280_pressure;Samples;Min_cycle;Max_cycle;Signal;HPM_P1;HPM_P2
2022/05/10 00:01:20;;;;;;;7.95;6.32;;;;;;;;;;4993140;28;20105;-83
2022/05/10 00:03:46;;;;;;;11.68;6.57;;;;;;;;;;4993064;28;20030;-83
2022/05/10 00:06:12;;;;;;;8.93;4.78;;;;;;;;;;4992022;28;20053;-82
2022/05/10 00:08:39;;;;;;;6.78;4.40;;;;;;;;;;4991998;28;20027;-84
2022/05/10 00:11:05;;;;;;;10.30;5.22;;;;;;;;;;4991533;28;20045;-81
2022/05/10 00:13:32;;;;;;;8.30;5.20;;;;;;;;;;4991765;28;20470;-82
2022/05/10 00:15:58;;;;;;;7.40;4.53;;;;;;;;;;4991971;28;20022;-82
2022/05/10 00:18:26;;;;;;;9.98;5.65;;;;;;;;;;4991652;28;20026;-82
2022/05/10 00:20:52;;;;;;;14.25;5.20;;;;;;;;;;4991700;28;20029;-82
2022/05/10 00:23:18;;;;;;;6.72;4.65;;;;;;;;;;4991546;28;20468;-81
2022/05/10 00:25:44;;;;;;;7.75;5.10;;;;;;;;;;4991161;28;20043;-81
2022/05/10 00:28:10;;;;;;;8.20;3.92;;;;;;;;;;4991399;28;20054;-82
2022/05/10 00:30:37;;;;;;;7.32;4.40;;;;;;;;;;4991518;28;20030;-81
2022/05/10 00:33:04;;;;;;;9.27;4.70;;;;;;;;;;4991530;28;20026;-82
2022/05/10 00:35:31;;;;;;;8.93;4.13;;;;;;;;;;5009884;28;20026;-81
2022/05/10 00:37:59;;;;;;;11.95;5.20;;;;;;;;;;5010161;28;20029;-81
2022/05/10 00:40:27;;;;;;;11.00;6.00;;;;;;;;;;5007077;28;20061;-82
2022/05/10 00:42:56;;;;;;;7.50;4.63;;;;;;;;;;5006569;28;20425;-81
2022/05/10 00:45:33;;;;;;;7.50;4.93;;;;;;;;;;5007867;28;20034;-83
2022/05/10 00:48:02;;;;;;;9.40;4.40;;;;;;;;;;5004257;28;20030;-82
2022/05/10 00:50:31;;;;;;;12.93;5.43;;;;;;;;;;5000417;28;20022;-82
2022/05/10 00:53:00;;;;;;;7.90;4.60;;;;;;;;;;5010763;28;20026;-82
2022/05/10 00:55:26;;;;;;;8.25;4.70;;;;;;;;;;5010032;28;20041;-82
2022/05/10 00:57:57;;;;;;;10.75;5.50;;;;;;;;;;5010557;28;20385;-82
2022/05/10 01:00:28;;;;;;;9.27;5.15;;;;;;;;;;5010456;28;20109;-82
2022/05/10 01:02:54;;;;;;;10.65;4.93;;;;;;;;;;5008409;28;20545;-82
2022/05/10 01:05:20;;;;;;;7.90;5.32;;;;;;;;;;4966404;28;1231670;-82
2022/05/10 01:07:52;;;;;;;9.35;4.80;;;;;;;;;;5011356;28;20085;-82
2022/05/10 01:10:26;;;;;;;7.95;4.63;;;;;;;;;;5011190;28;20022;-82
2022/05/10 01:12:54;;;;;;;9.43;5.22;;;;;;;;;;5012443;28;20037;-82
2022/05/10 01:15:23;;;;;;;11.23;5.45;;;;;;;;;;5011093;28;20040;-81
2022/05/10 01:17:50;;;;;;;12.85;5.68;;;;;;;;;;5011201;28;20022;-83
2022/05/10 01:20:18;;;;;;;11.32;5.90;;;;;;;;;;5011186;28;20026;-82
2022/05/10 01:22:54;;;;;;;10.73;4.97;;;;;;;;;;5010166;28;20461;-82
2022/05/10 01:25:20;;;;;;;9.43;5.15;;;;;;;;;;5012008;28;20500;-81
2022/05/10 01:28:05;;;;;;;7.40;5.15;;;;;;;;;;5011026;28;20117;-82
2022/05/10 01:30:31;;;;;;;10.07;6.28;;;;;;;;;;5012395;28;20030;-82
2022/05/10 01:35:50;;;;;;;8.07;4.97;;;;;;;;;;5012155;28;20117;-84
2022/05/10 01:38:25;;;;;;;8.00;4.85;;;;;;;;;;5011383;28;20025;-83
2022/05/10 01:40:54;;;;;;;9.60;5.13;;;;;;;;;;5011339;28;20113;-84
2022/05/10 01:43:27;;;;;;;9.70;5.30;;;;;;;;;;5011342;28;20453;-83
2022/05/10 01:45:58;;;;;;;6.65;4.63;;;;;;;;;;5011069;28;20128;-83
2022/05/10 01:48:25;;;;;;;8.68;4.97;;;;;;;;;;5011217;28;20461;-83
2022/05/10 01:50:51;;;;;;;12.32;4.85;;;;;;;;;;5010683;28;20026;-83
2022/05/10 01:53:19;;;;;;;8.10;4.85;;;;;;;;;;5011007;28;20014;-84
2022/05/10 01:55:47;;;;;;;7.95;4.95;;;;;;;;;;5011125;28;20057;-84
2022/05/10 01:58:15;;;;;;;12.23;5.75;;;;;;;;;;5010792;28;20033;-83
2022/05/10 02:00:44;;;;;;;15.35;5.97;;;;;;;;;;5010869;28;20029;-83
2022/05/10 02:03:23;;;;;;;9.48;4.80;;;;;;;;;;5010869;28;20041;-84
2022/05/10 02:05:58;;;;;;;9.50;4.85;;;;;;;;;;5010603;28;20065;-85
2022/05/10 02:08:24;;;;;;;9.15;4.15;;;;;;;;;;5010858;28;20029;-84
2022/05/10 02:10:52;;;;;;;6.88;4.72;;;;;;;;;;5011004;28;20037;-84
2022/05/10 02:13:22;;;;;;;10.15;5.70;;;;;;;;;;5010810;28;20026;-84
2022/05/10 02:15:58;;;;;;;9.52;5.47;;;;;;;;;;5010904;28;20053;-82
2022/05/10 02:18:36;;;;;;;14.77;6.15;;;;;;;;;;5010899;28;20084;-84
2022/05/10 02:21:06;;;;;;;8.63;5.28;;;;;;;;;;5012116;28;20026;-84
2022/05/10 02:23:52;;;;;;;12.68;6.13;;;;;;;;;;5010747;28;20026;-84
2022/05/10 02:26:22;;;;;;;26.00;8.95;;;;;;;;;;4999681;28;20041;-82
2022/05/10 02:28:54;;;;;;;14.40;7.82;;;;;;;;;;5010698;28;20025;-83
2022/05/10 02:31:23;;;;;;;17.02;8.15;;;;;;;;;;5010704;28;20175;-84
2022/05/10 02:33:50;;;;;;;15.63;8.25;;;;;;;;;;5012429;28;20053;-83
2022/05/10 02:36:16;;;;;;;21.85;8.30;;;;;;;;;;5015353;28;20026;-82
2022/05/10 02:38:43;;;;;;;14.35;7.82;;;;;;;;;;5013871;28;20477;-82
2022/05/10 02:41:20;;;;;;;21.73;8.73;;;;;;;;;;5013971;28;20497;-82
2022/05/10 02:44:00;;;;;;;18.38;8.68;;;;;;;;;;5013811;28;20032;-83
2022/05/10 02:46:27;;;;;;;14.23;8.93;;;;;;;;;;5013668;28;20038;-83
2022/05/10 02:48:54;;;;;;;11.55;7.65;;;;;;;;;;5013738;28;20555;-82
2022/05/10 02:51:20;;;;;;;16.10;8.65;;;;;;;;;;5013804;28;20033;-83
2022/05/10 02:53:46;;;;;;;16.70;8.27;;;;;;;;;;5013836;28;20026;-83
2022/05/10 02:56:15;;;;;;;16.77;8.57;;;;;;;;;;5014921;28;20026;-83
2022/05/10 02:58:45;;;;;;;13.20;7.55;;;;;;;;;;5013497;28;20026;-81
2022/05/10 03:01:15;;;;;;;13.90;6.75;;;;;;;;;;5013950;28;20030;-84
2022/05/10 03:03:41;;;;;;;12.77;6.78;;;;;;;;;;5014874;28;20533;-84
2022/05/10 03:06:08;;;;;;;14.55;8.35;;;;;;;;;;5013158;28;20413;-83
2022/05/10 03:08:34;;;;;;;11.48;7.63;;;;;;;;;;5013554;28;20021;-83
2022/05/10 03:11:00;;;;;;;10.57;6.68;;;;;;;;;;5013299;28;20173;-83
2022/05/10 03:13:26;;;;;;;14.30;7.55;;;;;;;;;;5013287;28;20488;-83
2022/05/10 03:15:52;;;;;;;10.75;6.32;;;;;;;;;;5013331;28;20353;-83
2022/05/10 03:18:18;;;;;;;13.77;6.63;;;;;;;;;;5014505;28;20032;-83
2022/05/10 03:20:44;;;;;;;14.75;6.85;;;;;;;;;;5013135;28;20127;-83
2022/05/10 03:23:10;;;;;;;10.77;7.05;;;;;;;;;;5013062;28;20092;-83
2022/05/10 03:25:37;;;;;;;12.07;7.80;;;;;;;;;;5014236;28;20068;-83
2022/05/10 03:28:03;;;;;;;10.60;7.00;;;;;;;;;;5012857;28;20022;-82
2022/05/10 03:30:30;;;;;;;14.65;7.85;;;;;;;;;;5012891;28;20081;-82
2022/05/10 03:32:56;;;;;;;17.17;6.53;;;;;;;;;;5012758;28;20028;-82
2022/05/10 03:35:23;;;;;;;14.13;8.73;;;;;;;;;;5012758;28;20408;-82
2022/05/10 03:37:49;;;;;;;10.30;7.38;;;;;;;;;;5012608;28;20018;-82
2022/05/10 03:40:15;;;;;;;20.98;8.07;;;;;;;;;;5012752;28;20053;-82
2022/05/10 03:42:45;;;;;;;13.48;7.47;;;;;;;;;;5013635;28;20021;-82
2022/05/10 03:45:12;;;;;;;18.77;10.07;;;;;;;;;;5011684;28;20060;-83
2022/05/10 03:47:39;;;;;;;15.13;9.07;;;;;;;;;;5014248;28;20105;-83
2022/05/10 03:50:05;;;;;;;17.20;7.50;;;;;;;;;;5012498;28;20018;-83
2022/05/10 03:52:31;;;;;;;19.95;8.48;;;;;;;;;;5012835;28;20117;-84
2022/05/10 03:54:57;;;;;;;11.55;7.47;;;;;;;;;;5012596;28;20477;-84
2022/05/10 03:57:24;;;;;;;18.92;8.43;;;;;;;;;;5012322;28;20512;-84
2022/05/10 03:59:50;;;;;;;30.23;9.50;;;;;;;;;;5012328;28;20018;-82
2022/05/10 04:02:16;;;;;;;14.13;9.25;;;;;;;;;;5013156;28;20088;-82
2022/05/10 04:04:43;;;;;;;14.52;8.27;;;;;;;;;;5012006;28;20477;-83
2022/05/10 04:07:09;;;;;;;15.80;8.50;;;;;;;;;;5012111;28;20046;-83
2022/05/10 04:09:35;;;;;;;15.77;7.30;;;;;;;;;;5011927;28;20018;-83
2022/05/10 04:12:01;;;;;;;15.55;6.45;;;;;;;;;;5013353;28;20044;-83
2022/05/10 04:14:27;;;;;;;13.43;6.60;;;;;;;;;;5012073;28;20026;-83
2022/05/10 04:16:54;;;;;;;11.73;7.13;;;;;;;;;;5011997;28;20049;-82
2022/05/10 04:19:20;;;;;;;12.95;7.60;;;;;;;;;;5012042;28;20022;-82
2022/05/10 04:21:46;;;;;;;12.25;7.82;;;;;;;;;;5011907;28;20029;-82
2022/05/10 04:24:12;;;;;;;13.07;6.63;;;;;;;;;;5011827;28;20446;-83
2022/05/10 04:26:39;;;;;;;15.00;7.28;;;;;;;;;;5011756;28;20038;-83
2022/05/10 04:29:05;;;;;;;11.57;6.05;;;;;;;;;;5011831;28;20077;-83
2022/05/10 04:31:32;;;;;;;10.73;7.28;;;;;;;;;;5011744;28;20022;-83
2022/05/10 04:33:58;;;;;;;13.43;7.38;;;;;;;;;;5011837;28;20022;-82
2022/05/10 04:36:25;;;;;;;11.90;6.78;;;;;;;;;;5012784;28;20026;-82
2022/05/10 04:38:51;;;;;;;9.73;7.00;;;;;;;;;;5011911;28;20084;-83
2022/05/10 04:41:25;;;;;;;13.82;7.60;;;;;;;;;;5011709;28;20022;-83
2022/05/10 04:43:51;;;;;;;17.45;7.50;;;;;;;;;;5012878;28;20488;-83
2022/05/10 04:46:17;;;;;;;15.90;7.20;;;;;;;;;;5011596;28;20038;-82
2022/05/10 04:48:44;;;;;;;16.42;7.43;;;;;;;;;;5011777;28;20037;-82
2022/05/10 04:51:10;;;;;;;12.85;8.00;;;;;;;;;;5011738;28;20044;-83
2022/05/10 04:53:36;;;;;;;12.18;7.68;;;;;;;;;;5012487;28;20396;-84
2022/05/10 04:56:03;;;;;;;18.33;7.82;;;;;;;;;;5011134;28;20446;-81
2022/05/10 04:58:29;;;;;;;16.75;7.50;;;;;;;;;;5011155;28;20049;-79
2022/05/10 05:00:57;;;;;;;14.25;8.35;;;;;;;;;;5005962;28;20030;-78
2022/05/10 05:03:23;;;;;;;14.20;8.02;;;;;;;;;;4996218;28;20018;-79
2022/05/10 05:05:49;;;;;;;13.85;8.35;;;;;;;;;;5008175;28;20440;-78
2022/05/10 05:08:15;;;;;;;13.77;7.05;;;;;;;;;;4992029;28;20448;-78
2022/05/10 05:10:41;;;;;;;14.00;8.40;;;;;;;;;;4994438;28;20381;-78
2022/05/10 05:13:07;;;;;;;18.48;8.35;;;;;;;;;;5010796;28;20049;-78
2022/05/10 05:15:33;;;;;;;18.80;7.72;;;;;;;;;;4993341;28;20433;-78
2022/05/10 05:18:03;;;;;;;20.98;7.40;;;;;;;;;;4995912;28;20027;-81
2022/05/10 05:20:29;;;;;;;16.00;8.65;;;;;;;;;;4997765;28;20010;-79
2022/05/10 05:22:56;;;;;;;17.98;7.57;;;;;;;;;;5004658;28;20034;-79
2022/05/10 05:25:22;;;;;;;13.13;8.10;;;;;;;;;;4996874;28;20029;-78
2022/05/10 05:27:49;;;;;;;15.43;7.68;;;;;;;;;;5010598;28;20014;-78
2022/05/10 05:30:15;;;;;;;15.60;8.05;;;;;;;;;;5005767;28;20377;-78
2022/05/10 05:32:41;;;;;;;12.45;8.93;;;;;;;;;;4997900;28;20037;-81
2022/05/10 05:35:07;;;;;;;16.75;8.13;;;;;;;;;;5000505;28;20014;-78
2022/05/10 05:37:33;;;;;;;16.60;8.45;;;;;;;;;;5004110;28;20523;-78
2022/05/10 05:40:10;;;;;;;16.80;9.18;;;;;;;;;;4999902;28;20053;-79
2022/05/10 05:42:37;;;;;;;15.82;7.45;;;;;;;;;;4995307;28;20026;-79
2022/05/10 05:45:04;;;;;;;12.25;7.15;;;;;;;;;;4998427;28;20042;-80
2022/05/10 05:47:30;;;;;;;16.13;7.70;;;;;;;;;;5001557;28;20022;-79
2022/05/10 05:49:56;;;;;;;15.75;8.45;;;;;;;;;;5011453;28;20038;-79
2022/05/10 05:52:23;;;;;;;18.85;8.73;;;;;;;;;;5010518;28;20097;-81
2022/05/10 05:54:50;;;;;;;14.75;8.45;;;;;;;;;;5010620;28;20037;-82
2022/05/10 05:57:16;;;;;;;19.33;8.88;;;;;;;;;;5009237;28;20010;-81
2022/05/10 05:59:42;;;;;;;19.92;9.00;;;;;;;;;;5010039;28;20045;-81
2022/05/10 06:02:11;;;;;;;15.52;8.77;;;;;;;;;;5011295;28;20025;-81
2022/05/10 06:04:37;;;;;;;27.02;8.60;;;;;;;;;;5011375;28;20496;-83
2022/05/10 06:07:03;;;;;;;16.38;7.30;;;;;;;;;;5010825;28;20515;-83
2022/05/10 06:09:29;;;;;;;14.95;6.18;;;;;;;;;;5027978;28;20114;-82
2022/05/10 06:11:55;;;;;;;18.88;8.00;;;;;;;;;;5026998;28;20036;-82
2022/05/10 06:14:21;;;;;;;20.13;6.95;;;;;;;;;;5013991;28;20041;-81
2022/05/10 06:16:48;;;;;;;15.20;6.97;;;;;;;;;;5010184;28;20018;-81
2022/05/10 06:19:14;;;;;;;17.67;6.32;;;;;;;;;;5013328;28;20113;-80
2022/05/10 06:21:41;;;;;;;13.32;6.18;;;;;;;;;;5012665;28;20124;-83
2022/05/10 06:24:10;;;;;;;15.95;6.40;;;;;;;;;;5016095;28;20033;-82
2022/05/10 06:26:36;;;;;;;18.67;8.85;;;;;;;;;;5015588;28;20033;-84
2022/05/10 06:29:02;;;;;;;19.40;7.15;;;;;;;;;;5015107;28;20397;-82
2022/05/10 06:31:28;;;;;;;23.98;7.95;;;;;;;;;;5008825;28;20023;-83
2022/05/10 06:33:54;;;;;;;18.80;7.38;;;;;;;;;;5012451;28;20091;-81
2022/05/10 06:36:20;;;;;;;16.48;7.82;;;;;;;;;;5014517;28;20021;-82
2022/05/10 06:38:46;;;;;;;18.45;8.15;;;;;;;;;;5001673;28;20028;-81
2022/05/10 06:41:12;;;;;;;18.35;8.50;;;;;;;;;;4993855;28;20022;-80
2022/05/10 06:43:38;;;;;;;11.23;6.45;;;;;;;;;;5004867;28;20014;-83
2022/05/10 06:46:21;;;;;;;13.30;5.72;;;;;;;;;;5014697;28;20038;-83
2022/05/10 06:48:47;;;;;;;10.93;5.72;;;;;;;;;;5008270;28;20021;-79
2022/05/10 06:51:14;;;;;;;14.95;5.15;;;;;;;;;;5010387;28;20053;-80
2022/05/10 06:53:40;;;;;;;18.38;6.07;;;;;;;;;;5012203;28;20026;-82
2022/05/10 06:56:07;;;;;;;10.52;5.13;;;;;;;;;;5013402;28;20022;-81
2022/05/10 06:58:33;;;;;;;11.02;4.22;;;;;;;;;;5014438;28;20018;-83
2022/05/10 07:00:59;;;;;;;14.95;6.18;;;;;;;;;;5014581;28;20030;-83
2022/05/10 07:03:33;;;;;;;13.05;6.28;;;;;;;;;;5013338;28;20018;-82
2022/05/10 07:06:00;;;;;;;12.13;5.13;;;;;;;;;;5012849;28;20065;-83
2022/05/10 07:08:26;;;;;;;12.38;5.75;;;;;;;;;;5012957;28;20061;-83
2022/05/10 07:10:52;;;;;;;16.50;4.82;;;;;;;;;;5012047;28;20029;-82
2022/05/10 07:13:20;;;;;;;8.10;4.55;;;;;;;;;;5012882;28;20026;-83
2022/05/10 07:15:46;;;;;;;11.38;5.60;;;;;;;;;;5012654;28;20449;-82
2022/05/10 07:18:13;;;;;;;9.43;5.05;;;;;;;;;;5011734;28;20621;-83
2022/05/10 07:20:39;;;;;;;11.90;4.53;;;;;;;;;;5012345;28;20473;-84
2022/05/10 07:23:05;;;;;;;11.02;5.45;;;;;;;;;;5013309;28;20026;-82
2022/05/10 07:25:32;;;;;;;12.27;6.38;;;;;;;;;;5014281;28;20034;-84
2022/05/10 07:27:58;;;;;;;11.10;5.72;;;;;;;;;;5014562;28;20025;-84
2022/05/10 07:30:25;;;;;;;9.30;5.03;;;;;;;;;;5013516;28;20377;-84
2022/05/10 07:32:51;;;;;;;9.57;5.95;;;;;;;;;;5013097;28;20119;-82
2022/05/10 07:36:23;;;;;;;13.35;5.00;;;;;;;;;;5014600;28;20109;-82
2022/05/10 07:38:05;;;;;;;7.18;4.38;;;;;;;;;;5014723;28;20388;-82
2022/05/10 07:40:31;;;;;;;9.68;4.43;;;;;;;;;;5013101;28;20481;-82
2022/05/10 07:42:57;;;;;;;9.43;4.70;;;;;;;;;;5013085;28;20473;-85
2022/05/10 07:45:23;;;;;;;8.68;4.97;;;;;;;;;;5014213;28;20037;-82
2022/05/10 07:47:49;;;;;;;10.05;3.90;;;;;;;;;;5014085;28;20496;-83
2022/05/10 07:50:16;;;;;;;10.80;5.05;;;;;;;;;;5012708;28;20026;-84
2022/05/10 07:52:44;;;;;;;6.55;5.32;;;;;;;;;;5014144;28;20022;-80
2022/05/10 07:55:12;;;;;;;8.85;5.32;;;;;;;;;;5013885;28;20018;-83
2022/05/10 07:57:39;;;;;;;11.48;7.32;;;;;;;;;;5012633;28;20022;-82
2022/05/10 08:00:08;;;;;;;10.35;4.30;;;;;;;;;;5013926;28;20018;-82
2022/05/10 08:02:34;;;;;;;13.43;5.68;;;;;;;;;;5013736;28;20068;-83
2022/05/10 08:05:00;;;;;;;7.28;4.70;;;;;;;;;;5013394;28;20040;-83
2022/05/10 08:07:26;;;;;;;11.20;5.55;;;;;;;;;;5012900;28;20050;-84
2022/05/10 08:09:52;;;;;;;8.60;4.88;;;;;;;;;;5000127;28;20474;-83
2022/05/10 08:12:18;;;;;;;11.07;4.82;;;;;;;;;;4994006;28;20077;-81
2022/05/10 08:14:44;;;;;;;7.03;4.40;;;;;;;;;;4992666;28;20470;-81
2022/05/10 08:17:10;;;;;;;8.07;4.68;;;;;;;;;;4992601;28;20474;-82
2022/05/10 08:19:36;;;;;;;18.17;5.93;;;;;;;;;;4993786;28;20438;-82
2022/05/10 08:22:02;;;;;;;12.32;6.28;;;;;;;;;;4993803;28;20026;-82
2022/05/10 08:24:29;;;;;;;14.85;5.60;;;;;;;;;;5008274;28;20041;-83
2022/05/10 08:26:55;;;;;;;10.75;5.18;;;;;;;;;;5013217;28;20030;-82
2022/05/10 08:29:21;;;;;;;7.93;5.13;;;;;;;;;;5013285;28;20543;-84
2022/05/10 08:31:47;;;;;;;11.38;4.78;;;;;;;;;;5012892;28;20032;-83
2022/05/10 08:34:13;;;;;;;7.93;4.85;;;;;;;;;;5011869;28;20032;-83
2022/05/10 08:36:40;;;;;;;6.00;4.57;;;;;;;;;;5013369;28;20022;-83
2022/05/10 08:39:06;;;;;;;9.80;4.57;;;;;;;;;;5013325;28;20528;-83
2022/05/10 08:41:44;;;;;;;8.60;4.88;;;;;;;;;;5013327;28;20022;-83
2022/05/10 08:44:18;;;;;;;8.13;4.68;;;;;;;;;;5011942;28;20076;-83
2022/05/10 08:46:49;;;;;;;8.35;5.45;;;;;;;;;;5012515;28;20037;-83
2022/05/10 08:49:15;;;;;;;12.85;5.35;;;;;;;;;;5011609;28;20450;-82
2022/05/10 08:51:41;;;;;;;12.63;4.70;;;;;;;;;;5012731;28;20022;-84
2022/05/10 08:54:07;;;;;;;9.70;4.88;;;;;;;;;;5011323;28;20477;-82
2022/05/10 08:56:40;;;;;;;8.57;5.43;;;;;;;;;;5012747;28;20037;-83
2022/05/10 08:59:06;;;;;;;;;;;;;;;;;;5013118;28;20381;-83
2022/05/10 09:01:35;;;;;;;14.27;6.30;;;;;;;;;;5012409;28;20003;-82
2022/05/10 09:04:37;;;;;;;8.73;5.55;;;;;;;;;;5012190;28;20022;-83
2022/05/10 09:07:06;;;;;;;12.25;5.88;;;;;;;;;;4929741;29;20082;-81
2022/05/10 09:09:40;;;;;;;8.00;4.18;;;;;;;;;;4981962;28;20498;-82
2022/05/10 09:12:19;;;;;;;11.48;5.35;;;;;;;;;;4992547;28;20138;-81
2022/05/10 09:14:50;;;;;;;7.20;5.05;;;;;;;;;;4992827;28;20027;-82
2022/05/10 09:17:18;;;;;;;10.57;4.78;;;;;;;;;;4992639;28;20687;-81
2022/05/10 09:19:44;;;;;;;6.75;3.85;;;;;;;;;;4991236;28;20417;-81
2022/05/10 09:22:18;;;;;;;6.95;4.22;;;;;;;;;;4992336;28;20019;-80
2022/05/10 09:24:49;;;;;;;10.27;4.15;;;;;;;;;;4992408;28;20018;-83
2022/05/10 09:27:15;;;;;;;13.15;4.75;;;;;;;;;;4991188;28;20049;-83
2022/05/10 09:29:41;;;;;;;11.77;5.43;;;;;;;;;;4991336;28;20081;-81
2022/05/10 09:35:00;;;;;;;6.22;4.55;;;;;;;;;;4992617;28;20085;-81
2022/05/10 09:37:26;;;;;;;5.93;4.15;;;;;;;;;;4991003;28;20018;-80
2022/05/10 09:39:58;;;;;;;7.07;4.35;;;;;;;;;;4992358;28;20442;-81
2022/05/10 09:42:35;;;;;;;6.65;3.45;;;;;;;;;;4993269;28;20030;-80
2022/05/10 09:45:13;;;;;;;12.60;5.15;;;;;;;;;;5030169;28;20084;-81
2022/05/10 09:47:40;;;;;;;7.93;3.90;;;;;;;;;;5014723;28;20026;-81
2022/05/10 09:50:12;;;;;;;7.93;4.78;;;;;;;;;;5015914;28;20053;-82
2022/05/10 09:52:39;;;;;;;5.37;3.67;;;;;;;;;;5011935;28;20058;-81
2022/05/10 09:55:07;;;;;;;8.25;5.07;;;;;;;;;;5014191;28;20018;-80
2022/05/10 09:57:35;;;;;;;8.13;4.18;;;;;;;;;;5014592;28;20025;-82
2022/05/10 10:00:02;;;;;;;10.13;5.65;;;;;;;;;;5016108;28;20041;-83
2022/05/10 10:02:33;;;;;;;6.25;3.60;;;;;;;;;;5014285;28;20057;-82
2022/05/10 10:05:00;;;;;;;7.60;4.18;;;;;;;;;;5015296;28;20025;-81
2022/05/10 10:07:28;;;;;;;6.00;3.60;;;;;;;;;;5014274;28;20493;-81
2022/05/10 10:09:56;;;;;;;8.98;4.78;;;;;;;;;;5013482;28;20022;-80
2022/05/10 10:12:39;;;;;;;6.97;4.20;;;;;;;;;;5012597;28;20175;-82
2022/05/10 10:15:17;;;;;;;7.50;5.10;;;;;;;;;;5013924;28;20512;-80
2022/05/10 10:17:49;;;;;;;8.50;4.63;;;;;;;;;;5012227;28;20306;-82
2022/05/10 10:20:27;;;;;;;8.77;5.43;;;;;;;;;;5013501;28;20511;-83
2022/05/10 10:22:55;;;;;;;10.70;5.13;;;;;;;;;;5014939;28;20030;-83
2022/05/10 10:25:21;;;;;;;7.10;4.50;;;;;;;;;;5015359;28;20389;-82
2022/05/10 10:27:52;;;;;;;8.35;5.75;;;;;;;;;;5015040;28;20073;-85
2022/05/10 10:30:22;;;;;;;9.05;4.15;;;;;;;;;;5016573;28;20108;-83
2022/05/10 10:33:08;;;;;;;14.48;3.67;;;;;;;;;;5014714;28;20380;-83
2022/05/10 10:35:39;;;;;;;5.05;3.47;;;;;;;;;;5013971;28;20033;-83
2022/05/10 10:38:08;;;;;;;13.30;4.68;;;;;;;;;;5015436;28;20033;-82
2022/05/10 10:40:36;;;;;;;11.07;4.50;;;;;;;;;;5014410;28;20113;-84
2022/05/10 10:43:15;;;;;;;6.65;4.18;;;;;;;;;;4998934;28;20034;-81
2022/05/10 10:45:45;;;;;;;11.35;4.65;;;;;;;;;;4994109;28;20034;-84
2022/05/10 10:48:34;;;;;;;5.43;2.78;;;;;;;;;;5014135;28;20169;-82
2022/05/10 10:51:00;;;;;;;5.18;3.55;;;;;;;;;;5015010;28;20029;-82
2022/05/10 10:53:28;;;;;;;5.05;4.22;;;;;;;;;;5014902;28;20026;-87
2022/05/10 10:55:59;;;;;;;9.00;4.60;;;;;;;;;;5013557;28;20044;-81
2022/05/10 10:58:57;;;;;;;7.93;3.42;;;;;;;;;;5016659;28;20024;-88
2022/05/10 11:01:38;;;;;;;7.65;3.80;;;;;;;;;;4987609;28;20038;-86
2022/05/10 11:04:07;;;;;;;7.93;4.07;;;;;;;;;;5012479;28;20382;-82
2022/05/10 11:06:39;;;;;;;12.07;5.47;;;;;;;;;;5014061;28;20129;-83
2022/05/10 11:09:23;;;;;;;4.63;2.60;;;;;;;;;;5014506;28;20025;-83
2022/05/10 11:11:56;;;;;;;5.70;3.88;;;;;;;;;;5013864;28;20477;-83
2022/05/10 11:14:37;;;;;;;5.22;3.45;;;;;;;;;;5015203;28;20032;-85
2022/05/10 11:17:20;;;;;;;6.03;4.35;;;;;;;;;;5013788;28;20102;-84
2022/05/10 11:20:13;;;;;;;9.18;4.07;;;;;;;;;;5014655;28;20826;-84
2022/05/10 11:22:40;;;;;;;6.07;4.45;;;;;;;;;;5010352;28;20120;-85
2022/05/10 11:25:13;;;;;;;8.82;4.50;;;;;;;;;;5013119;28;20066;-83
2022/05/10 11:28:04;;;;;;;16.40;5.88;;;;;;;;;;5013708;28;20030;-87
2022/05/10 11:30:45;;;;;;;13.15;8.85;;;;;;;;;;5014663;28;20021;-86
2022/05/10 11:33:21;;;;;;;8.98;5.10;;;;;;;;;;5013422;28;20481;-84
2022/05/10 11:35:59;;;;;;;8.02;4.32;;;;;;;;;;5013388;28;20030;-85
2022/05/10 11:38:25;;;;;;;15.95;7.20;;;;;;;;;;4997753;28;20128;-86
2022/05/10 11:40:51;;;;;;;11.07;5.25;;;;;;;;;;5003125;28;20474;-85
2022/05/10 11:43:33;;;;;;;8.30;4.32;;;;;;;;;;4993887;28;20031;-87
2022/05/10 11:45:59;;;;;;;11.60;4.53;;;;;;;;;;4993706;28;20038;-86
2022/05/10 11:48:45;;;;;;;7.22;4.80;;;;;;;;;;4993965;28;20030;-86
2022/05/10 11:54:05;;;;;;;9.65;5.13;;;;;;;;;;5007039;28;20060;-83
2022/05/10 11:56:36;;;;;;;10.50;4.22;;;;;;;;;;5013048;28;20025;-82
2022/05/10 11:59:26;;;;;;;8.38;4.13;;;;;;;;;;5009601;28;20114;-82
2022/05/10 12:01:53;;;;;;;9.93;5.25;;;;;;;;;;4989173;28;20031;-87
2022/05/10 12:04:38;;;;;;;9.57;4.00;;;;;;;;;;4996960;28;20497;-86
2022/05/10 12:07:19;;;;;;;10.20;4.55;;;;;;;;;;4994442;28;20092;-88
2022/05/10 12:09:52;;;;;;;12.23;5.80;;;;;;;;;;4996097;28;20055;-84
2022/05/10 12:12:33;;;;;;;10.82;4.47;;;;;;;;;;4994192;28;20430;-86
2022/05/10 12:23:49;;;;;;;10.05;5.22;;;;;;;;;;4993993;28;20404;-83
2022/05/10 12:26:35;;;;;;;7.03;4.88;;;;;;;;;;4993495;28;20042;-83
2022/05/10 12:29:02;;;;;;;7.22;4.57;;;;;;;;;;4993530;28;20026;-81
2022/05/10 12:31:32;;;;;;;9.05;4.88;;;;;;;;;;4994033;28;20022;-84
2022/05/10 12:34:12;;;;;;;12.43;6.40;;;;;;;;;;4993760;28;20018;-85
2022/05/10 12:36:40;;;;;;;8.32;6.25;;;;;;;;;;4992957;28;20079;-87
2022/05/10 12:39:21;;;;;;;7.93;4.70;;;;;;;;;;4993990;28;20027;-86
2022/05/10 12:41:53;;;;;;;9.60;4.75;;;;;;;;;;4992472;28;20022;-81
2022/05/10 12:44:37;;;;;;;8.50;3.03;;;512.10;2380.80;;;;;;4993196;28;20027;-83
2022/05/10 12:47:23;;;;;;;10.77;4.38;;;;;;;;;;4992399;28;20505;-88
2022/05/10 12:49:58;;;;;;;7.88;3.83;;;;;;;;;;4993769;28;20384;-86
2022/05/10 12:52:47;;;;;;;6.68;3.30;;;;;;;;;;4992127;28;20537;-84
2022/05/10 12:55:35;;;;;;;6.97;3.28;;;;;;;;;;4991942;28;20022;-84
2022/05/10 12:58:07;;;;;;;6.22;5.18;;;;;;;;;;4993572;28;20018;-84
2022/05/10 13:00:38;;;;;;;7.38;4.97;;;;;;;;;;4992351;28;20362;-84
2022/05/10 13:03:09;;;;;;;5.32;2.80;;;;;;;;;;4991897;28;20478;-85
2022/05/10 13:05:54;;;;;;;5.10;2.92;;;;;;;;;;4991901;28;20057;-85
2022/05/10 13:08:50;;;;;;;13.32;7.95;;;486.70;2380.80;;;;;;4993410;28;20053;-85
2022/05/10 13:11:19;;;;;;;13.98;6.78;;;486.60;2380.80;;;;;;4992079;28;20026;-87
2022/05/10 13:13:46;;;;;;;11.13;6.20;;;486.60;2380.80;;;;;;4992180;28;20022;-85
2022/05/10 13:16:26;;;;;;;10.43;6.10;;;486.80;2380.80;;;;;;4993714;28;20474;-85
2022/05/10 13:18:54;;;;;;;6.55;4.25;;;486.70;2380.80;;;;;;4994443;28;20038;-86
2022/05/10 13:21:28;;;;;;;8.40;5.28;;;486.70;2380.80;;;;;;4993983;28;20081;-86
2022/05/10 13:23:56;;;;;;;7.90;3.03;;;486.80;2380.80;;;;;;4993296;28;20026;-84
2022/05/10 13:26:22;;;;;;;6.95;4.70;;;486.50;2380.80;;;;;;4992100;28;20065;-85
2022/05/10 13:29:09;;;;;;;10.68;5.00;;;486.50;2380.80;;;;;;4992212;28;20379;-84
2022/05/10 13:31:37;;;;;;;14.15;5.15;;;486.60;2380.80;;;;;;5005853;28;20109;-84
2022/05/10 13:34:16;;;;;;;7.63;4.57;;;486.90;2380.80;;;;;;5009648;28;20034;-80
2022/05/10 13:36:52;;;;;;;6.28;3.58;;;486.90;2380.80;;;;;;5028453;28;20018;-87
2022/05/10 13:39:25;;;;;;;5.72;3.85;;;487.10;2380.80;;;;;;5011743;28;20030;-82
2022/05/10 13:41:56;;;;;;;6.70;4.43;;;487.10;2380.80;;;;;;5009313;28;20026;-83
2022/05/10 13:44:24;;;;;;;8.10;3.65;;;487.10;2380.80;;;;;;5011709;28;20033;-84
2022/05/10 13:47:02;;;;;;;8.35;4.40;;;486.90;2380.80;;;;;;5012091;28;20038;-76
2022/05/10 13:49:39;;;;;;;6.50;3.65;;;487.10;2380.80;;;;;;5010893;28;20030;-85
2022/05/10 13:52:06;;;;;;;8.45;4.88;;;487.10;2380.80;;;;;;5011947;28;20029;-87
2022/05/10 13:54:35;;;;;;;7.25;4.50;;;487.20;2380.80;;;;;;5014277;28;20061;-88
2022/05/10 13:57:11;;;;;;;5.72;3.92;;;487.00;2201.60;;;;;;5014200;28;20026;-88
2022/05/10 13:59:37;;;;;;;7.97;3.63;;;487.10;2176.00;;;;;;5013902;28;20084;-86
2022/05/10 14:02:06;;;;;;;12.07;3.95;;;486.80;2201.60;;;;;;5011410;28;20485;-85
2022/05/10 14:04:31;;;;;;;6.32;3.88;;;486.50;2380.80;;;;;;5008141;28;20478;-88
2022/05/10 14:07:06;;;;;;;12.02;5.32;;;486.40;2380.80;;;;;;5009104;28;20144;-80
2022/05/10 14:09:39;;;;;;;10.15;3.72;;;486.50;2380.80;;;;;;5009835;28;20465;-82
2022/05/10 14:12:12;;;;;;;11.07;3.50;;;486.40;2380.80;;;;;;5010544;28;20487;-81
2022/05/10 14:14:39;;;;;;;4.63;3.50;;;461.50;2380.80;;;;;;4993933;28;20030;-82
2022/05/10 14:17:06;;;;;;;3.88;2.50;;;461.70;2380.80;;;;;;4991121;28;20127;-88
2022/05/10 14:19:42;;;;;;;9.48;4.50;;;461.60;2380.80;;;;;;4992442;28;20112;-87
2022/05/10 14:22:20;;;;;;;3.97;3.08;;;486.40;2380.80;;;;;;4992169;28;20022;-87
2022/05/10 14:24:46;;;;;;;4.68;3.00;;;461.60;2380.80;;;;;;4992288;28;20034;-86
2022/05/10 14:27:14;;;;;;;4.43;3.10;;;486.40;2380.80;;;;;;4990690;28;20043;-86
2022/05/10 14:29:46;;;;;;;6.22;3.70;;;486.50;2380.80;;;;;;4992835;28;20050;-87
2022/05/10 14:32:30;;;;;;;6.43;3.97;;;461.70;2380.80;;;;;;5009884;28;20130;-86
2022/05/10 14:35:01;;;;;;;8.00;5.05;;;461.60;2380.80;;;;;;4993809;28;20077;-85
2022/05/10 14:37:31;;;;;;;10.30;4.85;;;486.50;2380.80;;;;;;5000527;28;20532;-86
2022/05/10 14:39:59;;;;;;;8.95;4.15;;;486.70;2380.80;;;;;;5004209;28;20385;-87
2022/05/10 14:42:38;;;;;;;6.63;3.55;;;486.70;2380.80;;;;;;5014653;28;20030;-87
2022/05/10 14:45:24;;;;;;;5.55;4.38;;;486.50;2380.80;;;;;;5022559;28;20068;-87
2022/05/10 14:47:51;;;;;;;7.50;5.82;;;486.60;2380.80;;;;;;5014408;28;20033;-87
2022/05/10 14:50:58;;;;;;;6.90;3.60;;;486.70;2380.80;;;;;;5014726;28;20038;-87